sensor_id;sensor_type;location;lat;lon;timestamp;pressure;altitude;pressure_sealevel;temperature;humidity
46782;BME280;32541;46.298;11.506;2023-03-21T00:01:51;89681.16;;;4.23;88.45
46782;BME280;32541;46.298;11.506;2023-03-21T00:04:17;89681.75;;;4.29;88.12
46782;BME280;32541;46.298;11.506;2023-03-21T00:06:43;89676.81;;;4.28;88.53
46782;BME280;32541;46.298;11.506;2023-03-21T00:09:08;89676.09;;;4.27;89.06
46782;BME280;32541;46.298;11.506;2023-03-21T00:11:34;89684.31;;;4.42;88.67
46782;BME280;32541;46.298;11.506;2023-03-21T00:13:59;89678.34;;;4.44;89.16
46782;BME280;32541;46.298;11.506;2023-03-21T00:16:27;89680.53;;;4.45;89.11
46782;BME280;32541;46.298;11.506;2023-03-21T00:18:54;89687.34;;;4.31;89.67
46782;BME280;32541;46.298;11.506;2023-03-21T00:21:22;89676.47;;;4.31;89.50
46782;BME280;32541;46.298;11.506;2023-03-21T00:23:53;89673.22;;;4.33;90.07
46782;BME280;32541;46.298;11.506;2023-03-21T00:26:18;89677.94;;;4.32;90.46
46782;BME280;32541;46.298;11.506;2023-03-21T00:28:43;89674.16;;;4.35;90.53
46782;BME280;32541;46.298;11.506;2023-03-21T00:31:09;89668.69;;;4.35;90.31
46782;BME280;32541;46.298;11.506;2023-03-21T00:33:35;89665.25;;;4.42;90.12
46782;BME280;32541;46.298;11.506;2023-03-21T00:36:03;89661.84;;;4.49;89.73
46782;BME280;32541;46.298;11.506;2023-03-21T00:38:29;89656.59;;;4.52;90.01
46782;BME280;32541;46.298;11.506;2023-03-21T00:40:55;89656.41;;;4.49;90.15
46782;BME280;32541;46.298;11.506;2023-03-21T00:43:21;89650.44;;;4.51;90.38
46782;BME280;32541;46.298;11.506;2023-03-21T00:45:54;89648.06;;;4.55;90.13
46782;BME280;32541;46.298;11.506;2023-03-21T00:48:20;89649.03;;;4.73;89.79
46782;BME280;32541;46.298;11.506;2023-03-21T00:50:45;89646.13;;;4.78;89.59
46782;BME280;32541;46.298;11.506;2023-03-21T00:53:12;89643.88;;;4.46;90.87
46782;BME280;32541;46.298;11.506;2023-03-21T00:55:38;89644.31;;;4.22;92.24
46782;BME280;32541;46.298;11.506;2023-03-21T00:58:04;89636.19;;;4.30;92.65
46782;BME280;32541;46.298;11.506;2023-03-21T01:00:30;89640.53;;;4.25;92.36
46782;BME280;32541;46.298;11.506;2023-03-21T01:02:57;89650.34;;;4.28;92.36
46782;BME280;32541;46.298;11.506;2023-03-21T01:05:28;89630.41;;;4.33;92.76
46782;BME280;32541;46.298;11.506;2023-03-21T01:08:15;89631.16;;;4.41;92.27
46782;BME280;32541;46.298;11.506;2023-03-21T01:10:43;89628.78;;;4.45;91.99
46782;BME280;32541;46.298;11.506;2023-03-21T01:13:11;89633.16;;;4.48;92.10
46782;BME280;32541;46.298;11.506;2023-03-21T01:15:42;89627.97;;;4.66;91.55
46782;BME280;32541;46.298;11.506;2023-03-21T01:18:08;89618.13;;;4.55;90.94
46782;BME280;32541;46.298;11.506;2023-03-21T01:20:33;89634.25;;;4.45;91.23
46782;BME280;32541;46.298;11.506;2023-03-21T01:22:59;89624.63;;;4.44;91.47
46782;BME280;32541;46.298;11.506;2023-03-21T01:25:25;89630.44;;;4.41;91.43
46782;BME280;32541;46.298;11.506;2023-03-21T01:27:50;89614.84;;;4.49;91.01
46782;BME280;32541;46.298;11.506;2023-03-21T01:30:16;89622.13;;;4.54;91.04
46782;BME280;32541;46.298;11.506;2023-03-21T01:32:41;89611.03;;;4.44;91.76
46782;BME280;32541;46.298;11.506;2023-03-21T01:35:07;89610.81;;;4.42;91.45
46782;BME280;32541;46.298;11.506;2023-03-21T01:37:32;89606.28;;;4.37;91.47
46782;BME280;32541;46.298;11.506;2023-03-21T01:39:58;89612.28;;;4.36;90.77
46782;BME280;32541;46.298;11.506;2023-03-21T01:42:23;89603.94;;;4.41;89.72
46782;BME280;32541;46.298;11.506;2023-03-21T01:47:16;89606.78;;;4.28;90.85
46782;BME280;32541;46.298;11.506;2023-03-21T01:49:44;89610.50;;;4.10;92.20
46782;BME280;32541;46.298;11.506;2023-03-21T01:52:15;89607.09;;;4.10;92.07
46782;BME280;32541;46.298;11.506;2023-03-21T01:54:42;89600.53;;;4.05;93.10
46782;BME280;32541;46.298;11.506;2023-03-21T01:57:12;89606.66;;;3.98;92.90
46782;BME280;32541;46.298;11.506;2023-03-21T01:59:49;89604.09;;;3.92;93.31
46782;BME280;32541;46.298;11.506;2023-03-21T02:02:26;89593.53;;;3.89;93.02
46782;BME280;32541;46.298;11.506;2023-03-21T02:04:54;89601.72;;;3.89;93.06
46782;BME280;32541;46.298;11.506;2023-03-21T02:07:28;89590.50;;;3.92;92.54
46782;BME280;32541;46.298;11.506;2023-03-21T02:09:56;89586.16;;;3.97;92.24
46782;BME280;32541;46.298;11.506;2023-03-21T02:12:23;89582.31;;;3.92;91.72
46782;BME280;32541;46.298;11.506;2023-03-21T02:14:49;89579.59;;;3.92;91.66
46782;BME280;32541;46.298;11.506;2023-03-21T02:36:27;89554.88;;;3.75;91.45
46782;BME280;32541;46.298;11.506;2023-03-21T02:42:07;89561.63;;;3.82;90.87
46782;BME280;32541;46.298;11.506;2023-03-21T02:44:41;89549.28;;;3.81;91.27
46782;BME280;32541;46.298;11.506;2023-03-21T02:47:12;89558.09;;;3.66;91.89
46782;BME280;32541;46.298;11.506;2023-03-21T02:52:46;89556.22;;;3.54;91.74
46782;BME280;32541;46.298;11.506;2023-03-21T02:55:16;89548.06;;;3.54;91.78
46782;BME280;32541;46.298;11.506;2023-03-21T02:57:46;89549.28;;;3.45;91.72
46782;BME280;32541;46.298;11.506;2023-03-21T03:00:20;89552.28;;;3.34;93.34
46782;BME280;32541;46.298;11.506;2023-03-21T03:02:47;89546.47;;;3.30;94.28
46782;BME280;32541;46.298;11.506;2023-03-21T03:07:48;89553.38;;;3.31;93.38
46782;BME280;32541;46.298;11.506;2023-03-21T03:24:12;89559.44;;;3.16;92.74
46782;BME280;32541;46.298;11.506;2023-03-21T03:26:47;89562.28;;;3.11;93.24
46782;BME280;32541;46.298;11.506;2023-03-21T03:29:16;89569.53;;;3.08;93.31
46782;BME280;32541;46.298;11.506;2023-03-21T03:31:56;89566.59;;;3.06;92.95
46782;BME280;32541;46.298;11.506;2023-03-21T03:34:25;89569.13;;;3.04;93.35
46782;BME280;32541;46.298;11.506;2023-03-21T03:36:56;89564.56;;;2.99;93.26
46782;BME280;32541;46.298;11.506;2023-03-21T03:39:28;89566.81;;;3.08;93.16
46782;BME280;32541;46.298;11.506;2023-03-21T03:42:00;89561.56;;;3.10;92.76
46782;BME280;32541;46.298;11.506;2023-03-21T03:44:27;89563.34;;;3.08;93.04
46782;BME280;32541;46.298;11.506;2023-03-21T03:49:25;89558.91;;;2.97;93.55
46782;BME280;32541;46.298;11.506;2023-03-21T03:52:19;89561.16;;;3.06;92.49
46782;BME280;32541;46.298;11.506;2023-03-21T03:54:48;89554.94;;;2.98;92.97
46782;BME280;32541;46.298;11.506;2023-03-21T03:57:15;89570.16;;;3.22;93.06
46782;BME280;32541;46.298;11.506;2023-03-21T03:59:43;89571.94;;;3.19;93.29
46782;BME280;32541;46.298;11.506;2023-03-21T04:02:08;89581.81;;;3.09;93.96
46782;BME280;32541;46.298;11.506;2023-03-21T04:04:35;89570.47;;;2.90;95.64
46782;BME280;32541;46.298;11.506;2023-03-21T04:07:02;89571.53;;;2.87;95.66
46782;BME280;32541;46.298;11.506;2023-03-21T04:09:28;89572.25;;;2.88;95.63
46782;BME280;32541;46.298;11.506;2023-03-21T04:11:54;89576.97;;;2.87;95.38
46782;BME280;32541;46.298;11.506;2023-03-21T04:14:20;89569.34;;;2.86;95.25
46782;BME280;32541;46.298;11.506;2023-03-21T04:16:45;89573.50;;;2.87;94.65
46782;BME280;32541;46.298;11.506;2023-03-21T04:19:11;89569.13;;;2.84;95.15
46782;BME280;32541;46.298;11.506;2023-03-21T04:21:37;89569.59;;;2.95;94.78
46782;BME280;32541;46.298;11.506;2023-03-21T04:24:03;89573.22;;;2.98;94.72
46782;BME280;32541;46.298;11.506;2023-03-21T04:26:29;89578.03;;;2.84;94.95
46782;BME280;32541;46.298;11.506;2023-03-21T04:28:58;89577.69;;;2.88;95.38
46782;BME280;32541;46.298;11.506;2023-03-21T04:31:25;89579.09;;;2.81;96.25
46782;BME280;32541;46.298;11.506;2023-03-21T04:33:55;89576.97;;;2.87;95.73
46782;BME280;32541;46.298;11.506;2023-03-21T04:36:24;89578.41;;;2.88;95.65
46782;BME280;32541;46.298;11.506;2023-03-21T04:39:06;89573.66;;;2.81;94.98
46782;BME280;32541;46.298;11.506;2023-03-21T04:41:37;89577.25;;;2.76;96.08
46782;BME280;32541;46.298;11.506;2023-03-21T04:44:02;89567.03;;;2.69;96.14
46782;BME280;32541;46.298;11.506;2023-03-21T04:46:28;89573.97;;;2.77;95.82
46782;BME280;32541;46.298;11.506;2023-03-21T04:48:53;89572.78;;;2.65;95.71
46782;BME280;32541;46.298;11.506;2023-03-21T04:51:19;89573.09;;;2.62;95.32
46782;BME280;32541;46.298;11.506;2023-03-21T04:53:44;89565.19;;;2.64;95.15
46782;BME280;32541;46.298;11.506;2023-03-21T04:56:13;89561.53;;;2.61;94.89
46782;BME280;32541;46.298;11.506;2023-03-21T04:58:39;89565.66;;;2.55;94.92
46782;BME280;32541;46.298;11.506;2023-03-21T05:01:07;89557.63;;;2.49;95.28
46782;BME280;32541;46.298;11.506;2023-03-21T05:03:33;89556.69;;;2.47;95.70
46782;BME280;32541;46.298;11.506;2023-03-21T05:06:05;89551.47;;;2.49;95.89
46782;BME280;32541;46.298;11.506;2023-03-21T05:08:33;89552.72;;;2.48;95.33
46782;BME280;32541;46.298;11.506;2023-03-21T05:10:58;89557.81;;;2.51;96.12
46782;BME280;32541;46.298;11.506;2023-03-21T05:13:24;89557.81;;;2.51;96.90
46782;BME280;32541;46.298;11.506;2023-03-21T05:15:49;89556.81;;;2.41;97.33
46782;BME280;32541;46.298;11.506;2023-03-21T05:18:15;89555.84;;;2.52;96.44
46782;BME280;32541;46.298;11.506;2023-03-21T05:20:52;89571.13;;;2.42;97.52
46782;BME280;32541;46.298;11.506;2023-03-21T05:23:21;89562.81;;;2.27;98.95
46782;BME280;32541;46.298;11.506;2023-03-21T05:25:47;89571.69;;;2.27;99.45
46782;BME280;32541;46.298;11.506;2023-03-21T05:28:13;89566.81;;;2.26;99.05
46782;BME280;32541;46.298;11.506;2023-03-21T05:30:43;89562.63;;;2.24;98.43
46782;BME280;32541;46.298;11.506;2023-03-21T05:33:09;89562.63;;;2.24;98.54
46782;BME280;32541;46.298;11.506;2023-03-21T05:35:34;89568.47;;;2.29;98.41
46782;BME280;32541;46.298;11.506;2023-03-21T05:38:00;89568.13;;;2.32;98.52
46782;BME280;32541;46.298;11.506;2023-03-21T05:40:25;89566.94;;;2.41;98.28
46782;BME280;32541;46.298;11.506;2023-03-21T05:42:51;89571.06;;;2.55;98.34
46782;BME280;32541;46.298;11.506;2023-03-21T05:45:16;89573.84;;;2.62;97.46
46782;BME280;32541;46.298;11.506;2023-03-21T05:47:42;89584.78;;;2.70;97.62
46782;BME280;32541;46.298;11.506;2023-03-21T05:50:08;89591.47;;;2.69;98.18
46782;BME280;32541;46.298;11.506;2023-03-21T05:52:34;89586.22;;;2.71;97.93
46782;BME280;32541;46.298;11.506;2023-03-21T05:54:59;89583.03;;;2.80;98.17
46782;BME280;32541;46.298;11.506;2023-03-21T05:57:25;89587.50;;;2.91;98.02
46782;BME280;32541;46.298;11.506;2023-03-21T05:59:53;89589.66;;;2.92;97.53
46782;BME280;32541;46.298;11.506;2023-03-21T06:02:18;89582.38;;;2.87;97.96
46782;BME280;32541;46.298;11.506;2023-03-21T06:04:44;89593.53;;;2.97;97.30
46782;BME280;32541;46.298;11.506;2023-03-21T06:07:10;89587.50;;;2.91;97.60
46782;BME280;32541;46.298;11.506;2023-03-21T06:09:35;89584.78;;;2.91;97.68
46782;BME280;32541;46.298;11.506;2023-03-21T06:12:01;89583.91;;;2.96;97.44
46782;BME280;32541;46.298;11.506;2023-03-21T06:14:26;89596.22;;;2.97;97.35
46782;BME280;32541;46.298;11.506;2023-03-21T06:16:51;89590.03;;;3.17;96.72
46782;BME280;32541;46.298;11.506;2023-03-21T06:19:19;89586.56;;;3.09;96.05
46782;BME280;32541;46.298;11.506;2023-03-21T06:21:45;89588.31;;;3.06;96.31
46782;BME280;32541;46.298;11.506;2023-03-21T06:24:10;89590.53;;;3.08;96.32
46782;BME280;32541;46.298;11.506;2023-03-21T06:26:36;89588.19;;;3.12;95.55
46782;BME280;32541;46.298;11.506;2023-03-21T06:29:01;89589.31;;;3.16;94.86
46782;BME280;32541;46.298;11.506;2023-03-21T06:31:27;89595.22;;;3.07;95.25
46782;BME280;32541;46.298;11.506;2023-03-21T06:33:52;89590.53;;;3.08;95.62
46782;BME280;32541;46.298;11.506;2023-03-21T06:36:18;89586.88;;;3.05;95.59
46782;BME280;32541;46.298;11.506;2023-03-21T06:38:44;89584.91;;;3.06;95.60
46782;BME280;32541;46.298;11.506;2023-03-21T06:41:11;89590.78;;;3.17;95.85
46782;BME280;32541;46.298;11.506;2023-03-21T06:43:36;89590.13;;;3.04;96.90
46782;BME280;32541;46.298;11.506;2023-03-21T06:46:02;89587.94;;;3.02;96.47
46782;BME280;32541;46.298;11.506;2023-03-21T06:48:28;89582.38;;;3.08;96.90
46782;BME280;32541;46.298;11.506;2023-03-21T06:50:53;89582.41;;;3.15;96.30
46782;BME280;32541;46.298;11.506;2023-03-21T06:53:21;89578.63;;;3.18;96.14
46782;BME280;32541;46.298;11.506;2023-03-21T06:55:50;89578.13;;;3.20;96.18
46782;BME280;32541;46.298;11.506;2023-03-21T06:58:15;89584.50;;;3.30;95.90
46782;BME280;32541;46.298;11.506;2023-03-21T07:00:41;89579.97;;;3.53;95.61
46782;BME280;32541;46.298;11.506;2023-03-21T07:03:06;89580.84;;;3.84;95.83
46782;BME280;32541;46.298;11.506;2023-03-21T07:05:34;89588.25;;;4.19;95.97
46782;BME280;32541;46.298;11.506;2023-03-21T07:08:00;89587.66;;;4.64;95.05
46782;BME280;32541;46.298;11.506;2023-03-21T07:10:25;89594.44;;;5.01;92.58
46782;BME280;32541;46.298;11.506;2023-03-21T07:12:51;89593.16;;;5.32;89.81
46782;BME280;32541;46.298;11.506;2023-03-21T07:15:16;89598.22;;;5.66;86.40
46782;BME280;32541;46.298;11.506;2023-03-21T07:17:41;89596.56;;;5.86;86.01
46782;BME280;32541;46.298;11.506;2023-03-21T07:20:07;89595.75;;;6.23;86.55
46782;BME280;32541;46.298;11.506;2023-03-21T07:22:34;89595.00;;;6.70;85.48
46782;BME280;32541;46.298;11.506;2023-03-21T07:24:59;89588.66;;;7.24;82.51
46782;BME280;32541;46.298;11.506;2023-03-21T07:27:25;89591.06;;;7.87;79.52
46782;BME280;32541;46.298;11.506;2023-03-21T07:29:50;89584.28;;;8.30;77.50
46782;BME280;32541;46.298;11.506;2023-03-21T07:32:15;89586.00;;;8.69;74.83
46782;BME280;32541;46.298;11.506;2023-03-21T07:34:41;89586.97;;;9.08;71.43
46782;BME280;32541;46.298;11.506;2023-03-21T07:37:06;89585.81;;;9.38;68.80
46782;BME280;32541;46.298;11.506;2023-03-21T07:39:32;89593.19;;;9.81;68.15
46782;BME280;32541;46.298;11.506;2023-03-21T07:41:59;89583.09;;;9.93;66.72
46782;BME280;32541;46.298;11.506;2023-03-21T07:44:24;89592.13;;;10.23;66.44
46782;BME280;32541;46.298;11.506;2023-03-21T07:46:49;89589.69;;;10.46;65.34
46782;BME280;32541;46.298;11.506;2023-03-21T07:49:15;89584.59;;;10.90;64.37
46782;BME280;32541;46.298;11.506;2023-03-21T07:51:41;89581.13;;;10.90;62.86
46782;BME280;32541;46.298;11.506;2023-03-21T07:54:06;89572.56;;;11.14;62.16
46782;BME280;32541;46.298;11.506;2023-03-21T07:56:32;89574.69;;;11.26;61.06
46782;BME280;32541;46.298;11.506;2023-03-21T07:58:57;89579.59;;;11.37;61.12
46782;BME280;32541;46.298;11.506;2023-03-21T08:01:24;89577.75;;;11.70;61.04
46782;BME280;32541;46.298;11.506;2023-03-21T08:03:49;89576.34;;;12.21;59.72
46782;BME280;32541;46.298;11.506;2023-03-21T08:06:18;89571.09;;;12.67;56.86
46782;BME280;32541;46.298;11.506;2023-03-21T08:08:45;89563.50;;;12.89;55.65
46782;BME280;32541;46.298;11.506;2023-03-21T08:11:11;89568.66;;;12.95;54.90
46782;BME280;32541;46.298;11.506;2023-03-21T08:13:37;89570.34;;;13.09;54.80
46782;BME280;32541;46.298;11.506;2023-03-21T08:16:03;89566.63;;;13.16;56.13
46782;BME280;32541;46.298;11.506;2023-03-21T08:18:28;89574.84;;;13.38;56.05
46782;BME280;32541;46.298;11.506;2023-03-21T08:20:55;89563.59;;;13.68;53.51
46782;BME280;32541;46.298;11.506;2023-03-21T08:23:21;89557.13;;;14.10;52.59
46782;BME280;32541;46.298;11.506;2023-03-21T08:25:54;89554.22;;;14.20;52.15
46782;BME280;32541;46.298;11.506;2023-03-21T08:28:20;89555.31;;;13.91;51.91
46782;BME280;32541;46.298;11.506;2023-03-21T08:30:47;89542.69;;;13.65;52.75
46782;BME280;32541;46.298;11.506;2023-03-21T08:33:12;89548.91;;;13.43;54.00
46782;BME280;32541;46.298;11.506;2023-03-21T08:35:38;89545.16;;;12.94;53.27
46782;BME280;32541;46.298;11.506;2023-03-21T08:38:03;89548.28;;;11.42;56.91
46782;BME280;32541;46.298;11.506;2023-03-21T08:40:29;89547.25;;;10.87;58.79
46782;BME280;32541;46.298;11.506;2023-03-21T08:42:55;89547.44;;;10.22;61.73
46782;BME280;32541;46.298;11.506;2023-03-21T08:45:20;89543.19;;;10.02;62.67
46782;BME280;32541;46.298;11.506;2023-03-21T08:47:47;89548.91;;;10.23;62.44
46782;BME280;32541;46.298;11.506;2023-03-21T08:50:18;89541.22;;;10.22;64.26
46782;BME280;32541;46.298;11.506;2023-03-21T08:52:44;89549.44;;;10.60;61.20
46782;BME280;32541;46.298;11.506;2023-03-21T08:55:11;89544.66;;;10.13;64.81
46782;BME280;32541;46.298;11.506;2023-03-21T08:57:36;89545.84;;;10.29;65.19
46782;BME280;32541;46.298;11.506;2023-03-21T09:00:04;89543.09;;;10.29;65.36
46782;BME280;32541;46.298;11.506;2023-03-21T09:02:49;89542.09;;;10.53;62.34
46782;BME280;32541;46.298;11.506;2023-03-21T09:05:16;89540.06;;;10.53;63.63
46782;BME280;32541;46.298;11.506;2023-03-21T09:07:43;89539.03;;;10.39;64.47
46782;BME280;32541;46.298;11.506;2023-03-21T09:10:12;89532.13;;;10.38;63.83
46782;BME280;32541;46.298;11.506;2023-03-21T09:12:38;89537.16;;;10.23;64.62
46782;BME280;32541;46.298;11.506;2023-03-21T09:15:03;89530.19;;;10.02;64.25
46782;BME280;32541;46.298;11.506;2023-03-21T09:17:30;89531.25;;;10.36;62.97
46782;BME280;32541;46.298;11.506;2023-03-21T09:19:57;89531.22;;;10.55;62.44
46782;BME280;32541;46.298;11.506;2023-03-21T09:22:24;89528.91;;;10.13;63.84
46782;BME280;32541;46.298;11.506;2023-03-21T09:24:51;89530.81;;;10.30;63.36
46782;BME280;32541;46.298;11.506;2023-03-21T09:27:17;89527.06;;;10.35;62.49
46782;BME280;32541;46.298;11.506;2023-03-21T09:29:50;89527.63;;;10.43;62.94
46782;BME280;32541;46.298;11.506;2023-03-21T09:32:16;89525.91;;;10.57;62.12
46782;BME280;32541;46.298;11.506;2023-03-21T09:34:44;89529.47;;;10.79;61.22
46782;BME280;32541;46.298;11.506;2023-03-21T09:37:10;89529.19;;;10.75;61.78
46782;BME280;32541;46.298;11.506;2023-03-21T09:39:41;89525.84;;;10.95;60.71
46782;BME280;32541;46.298;11.506;2023-03-21T09:44:55;89522.97;;;10.65;61.85
46782;BME280;32541;46.298;11.506;2023-03-21T09:47:27;89518.75;;;10.73;59.92
46782;BME280;32541;46.298;11.506;2023-03-21T09:50:10;89517.28;;;11.01;59.77
46782;BME280;32541;46.298;11.506;2023-03-21T09:53:09;89523.72;;;10.55;61.42
46782;BME280;32541;46.298;11.506;2023-03-21T09:55:37;89520.53;;;10.69;60.86
46782;BME280;32541;46.298;11.506;2023-03-21T10:00:48;89517.75;;;10.78;60.02
46782;BME280;32541;46.298;11.506;2023-03-21T10:03:23;89513.69;;;10.89;60.38
46782;BME280;32541;46.298;11.506;2023-03-21T10:05:51;89499.06;;;11.27;58.84
46782;BME280;32541;46.298;11.506;2023-03-21T10:08:23;89503.28;;;11.28;57.92
46782;BME280;32541;46.298;11.506;2023-03-21T10:10:59;89498.38;;;11.57;57.22
46782;BME280;32541;46.298;11.506;2023-03-21T10:13:34;89497.97;;;12.03;55.74
46782;BME280;32541;46.298;11.506;2023-03-21T10:16:15;89483.84;;;12.30;55.67
46782;BME280;32541;46.298;11.506;2023-03-21T10:18:43;89491.28;;;12.06;53.37
46782;BME280;32541;46.298;11.506;2023-03-21T10:21:23;89488.16;;;12.33;54.68
46782;BME280;32541;46.298;11.506;2023-03-21T10:23:52;89486.28;;;12.68;52.44
46782;BME280;32541;46.298;11.506;2023-03-21T10:26:20;89482.22;;;12.69;53.45
46782;BME280;32541;46.298;11.506;2023-03-21T10:28:48;89477.44;;;12.81;53.28
46782;BME280;32541;46.298;11.506;2023-03-21T10:31:16;89481.88;;;12.42;53.38
46782;BME280;32541;46.298;11.506;2023-03-21T10:33:45;89485.69;;;12.15;53.40
46782;BME280;32541;46.298;11.506;2023-03-21T10:36:22;89485.63;;;12.25;53.08
46782;BME280;32541;46.298;11.506;2023-03-21T10:38:54;89486.09;;;12.21;52.13
46782;BME280;32541;46.298;11.506;2023-03-21T10:41:20;89481.97;;;12.65;52.27
46782;BME280;32541;46.298;11.506;2023-03-21T10:43:46;89481.28;;;12.76;50.41
46782;BME280;32541;46.298;11.506;2023-03-21T10:46:17;89473.44;;;13.05;50.32
46782;BME280;32541;46.298;11.506;2023-03-21T10:48:51;89468.69;;;13.29;49.75
46782;BME280;32541;46.298;11.506;2023-03-21T10:51:20;89469.41;;;13.29;48.28
46782;BME280;32541;46.298;11.506;2023-03-21T10:53:58;89462.91;;;13.13;49.29
46782;BME280;32541;46.298;11.506;2023-03-21T10:56:35;89455.25;;;13.35;49.74
46782;BME280;32541;46.298;11.506;2023-03-21T10:59:02;89451.66;;;13.32;48.02
46782;BME280;32541;46.298;11.506;2023-03-21T11:01:40;89452.13;;;13.52;48.21
46782;BME280;32541;46.298;11.506;2023-03-21T11:04:09;89449.25;;;13.27;49.84
46782;BME280;32541;46.298;11.506;2023-03-21T11:06:40;89445.94;;;13.07;48.94
46782;BME280;32541;46.298;11.506;2023-03-21T11:09:16;89450.13;;;12.85;46.51
46782;BME280;32541;46.298;11.506;2023-03-21T11:14:45;89447.53;;;13.22;42.86
46782;BME280;32541;46.298;11.506;2023-03-21T11:19:48;89434.59;;;13.48;46.25
46782;BME280;32541;46.298;11.506;2023-03-21T11:22:14;89435.44;;;13.39;48.82
46782;BME280;32541;46.298;11.506;2023-03-21T11:24:40;89437.81;;;13.56;48.32
46782;BME280;32541;46.298;11.506;2023-03-21T11:27:07;89437.47;;;13.15;50.76
46782;BME280;32541;46.298;11.506;2023-03-21T11:29:38;89432.56;;;13.60;46.82
46782;BME280;32541;46.298;11.506;2023-03-21T11:32:09;89425.28;;;14.01;46.44
46782;BME280;32541;46.298;11.506;2023-03-21T11:34:56;89429.22;;;14.46;45.70
46782;BME280;32541;46.298;11.506;2023-03-21T11:37:29;89424.41;;;13.99;46.02
46782;BME280;32541;46.298;11.506;2023-03-21T11:40:17;89424.69;;;14.39;47.46
46782;BME280;32541;46.298;11.506;2023-03-21T11:42:46;89413.06;;;14.80;46.05
46782;BME280;32541;46.298;11.506;2023-03-21T11:45:35;89416.38;;;15.29;44.62
46782;BME280;32541;46.298;11.506;2023-03-21T11:48:10;89419.91;;;15.56;43.41
46782;BME280;32541;46.298;11.506;2023-03-21T11:50:40;89413.00;;;15.30;40.82
46782;BME280;32541;46.298;11.506;2023-03-21T11:53:39;89407.31;;;15.81;38.94
46782;BME280;32541;46.298;11.506;2023-03-21T11:56:31;89403.38;;;16.13;40.69
46782;BME280;32541;46.298;11.506;2023-03-21T12:02:06;89394.84;;;16.23;38.66
46782;BME280;32541;46.298;11.506;2023-03-21T12:04:53;89390.78;;;16.39;39.35
46782;BME280;32541;46.298;11.506;2023-03-21T12:15:57;89369.00;;;15.91;40.76
46782;BME280;32541;46.298;11.506;2023-03-21T12:21:43;89361.03;;;16.85;41.83
46782;BME280;32541;46.298;11.506;2023-03-21T12:24:16;89357.66;;;16.43;40.25
46782;BME280;32541;46.298;11.506;2023-03-21T12:29:20;89352.34;;;16.34;39.27
46782;BME280;32541;46.298;11.506;2023-03-21T12:32:08;89365.28;;;15.45;40.82
46782;BME280;32541;46.298;11.506;2023-03-21T12:35:00;89343.84;;;15.87;41.06
46782;BME280;32541;46.298;11.506;2023-03-21T12:37:51;89350.31;;;14.71;41.15
46782;BME280;32541;46.298;11.506;2023-03-21T12:40:43;89354.41;;;14.70;42.46
46782;BME280;32541;46.298;11.506;2023-03-21T12:43:29;89342.19;;;15.14;44.28
46782;BME280;32541;46.298;11.506;2023-03-21T12:46:02;89353.63;;;15.61;42.21
46782;BME280;32541;46.298;11.506;2023-03-21T12:48:57;89343.13;;;15.86;41.95
46782;BME280;32541;46.298;11.506;2023-03-21T12:51:35;89331.19;;;15.97;41.59
46782;BME280;32541;46.298;11.506;2023-03-21T12:54:34;89346.09;;;15.77;40.91
46782;BME280;32541;46.298;11.506;2023-03-21T12:57:00;89335.59;;;15.89;41.08
46782;BME280;32541;46.298;11.506;2023-03-21T12:59:59;89344.50;;;16.15;41.05
46782;BME280;32541;46.298;11.506;2023-03-21T13:02:33;89333.03;;;15.93;41.39
46782;BME280;32541;46.298;11.506;2023-03-21T13:05:16;89327.28;;;16.02;41.37
46782;BME280;32541;46.298;11.506;2023-03-21T13:07:47;89333.50;;;16.17;40.45
46782;BME280;32541;46.298;11.506;2023-03-21T13:10:19;89327.88;;;16.01;42.79
46782;BME280;32541;46.298;11.506;2023-03-21T13:18:42;89314.31;;;16.07;41.03
46782;BME280;32541;46.298;11.506;2023-03-21T13:26:37;89306.72;;;15.51;42.02
46782;BME280;32541;46.298;11.506;2023-03-21T13:29:56;89306.59;;;15.22;44.10
46782;BME280;32541;46.298;11.506;2023-03-21T13:34:53;89313.66;;;14.97;43.61
46782;BME280;32541;46.298;11.506;2023-03-21T13:37:19;89301.75;;;15.09;43.50
46782;BME280;32541;46.298;11.506;2023-03-21T13:39:45;89303.22;;;15.37;44.16
46782;BME280;32541;46.298;11.506;2023-03-21T13:42:21;89299.13;;;15.51;42.30
46782;BME280;32541;46.298;11.506;2023-03-21T13:44:51;89306.00;;;15.64;43.20
46782;BME280;32541;46.298;11.506;2023-03-21T13:55:42;89292.44;;;15.70;43.48
46782;BME280;32541;46.298;11.506;2023-03-21T13:58:31;89284.00;;;15.82;43.68
46782;BME280;32541;46.298;11.506;2023-03-21T14:01:31;89280.63;;;15.70;42.25
46782;BME280;32541;46.298;11.506;2023-03-21T14:04:16;89287.94;;;15.92;42.94
46782;BME280;32541;46.298;11.506;2023-03-21T14:09:08;89279.13;;;15.26;44.82
46782;BME280;32541;46.298;11.506;2023-03-21T14:11:39;89275.00;;;15.40;44.13
46782;BME280;32541;46.298;11.506;2023-03-21T14:14:05;89283.41;;;15.56;43.89
46782;BME280;32541;46.298;11.506;2023-03-21T14:16:31;89282.88;;;15.60;43.45
46782;BME280;32541;46.298;11.506;2023-03-21T14:19:04;89272.03;;;15.23;43.38
46782;BME280;32541;46.298;11.506;2023-03-21T14:21:32;89277.88;;;15.29;44.82
46782;BME280;32541;46.298;11.506;2023-03-21T14:24:05;89284.84;;;15.30;44.40
46782;BME280;32541;46.298;11.506;2023-03-21T14:26:33;89274.81;;;15.23;44.30
46782;BME280;32541;46.298;11.506;2023-03-21T14:29:03;89275.31;;;15.19;44.36
46782;BME280;32541;46.298;11.506;2023-03-21T14:31:28;89276.44;;;15.00;43.93
46782;BME280;32541;46.298;11.506;2023-03-21T14:33:57;89279.06;;;14.85;44.36
46782;BME280;32541;46.298;11.506;2023-03-21T14:36:26;89281.25;;;15.00;45.03
46782;BME280;32541;46.298;11.506;2023-03-21T14:39:01;89266.91;;;15.17;45.82
46782;BME280;32541;46.298;11.506;2023-03-21T14:41:29;89269.34;;;14.97;44.41
46782;BME280;32541;46.298;11.506;2023-03-21T14:46:27;89270.38;;;15.04;44.64
46782;BME280;32541;46.298;11.506;2023-03-21T14:48:53;89262.50;;;14.98;44.85
46782;BME280;32541;46.298;11.506;2023-03-21T14:51:18;89253.56;;;15.00;43.82